sensor_id;sensor_type;location;lat;lon;timestamp;temperature;humidity
80192;SHT31;69513;51.990;5.704;2023-05-10T05:09:29;18.2;63.6
80192;SHT31;69513;51.990;5.704;2023-05-10T05:12:00;18.1;63.9
80192;SHT31;69513;51.990;5.704;2023-05-10T05:14:30;17.9;64.0
80192;SHT31;69513;51.990;5.704;2023-05-10T05:17:00;17.7;64.7
80192;SHT31;69513;51.990;5.704;2023-05-10T05:19:35;17.6;65.6
80192;SHT31;69513;51.990;5.704;2023-05-10T05:22:06;17.4;66.4
80192;SHT31;69513;51.990;5.704;2023-05-10T05:24:37;17.3;67.2
80192;SHT31;69513;51.990;5.704;2023-05-10T05:27:08;17.2;67.8
80192;SHT31;69513;51.990;5.704;2023-05-10T05:29:37;17.1;68.5
80192;SHT31;69513;51.990;5.704;2023-05-10T05:32:08;17.0;68.3
80192;SHT31;69513;51.990;5.704;2023-05-10T05:34:38;16.9;69.1
80192;SHT31;69513;51.990;5.704;2023-05-10T05:37:12;16.9;69.4
80192;SHT31;69513;51.990;5.704;2023-05-10T05:39:46;16.8;69.7
80192;SHT31;69513;51.990;5.704;2023-05-10T05:42:17;16.7;70.1
80192;SHT31;69513;51.990;5.704;2023-05-10T05:44:47;16.7;70.2
80192;SHT31;69513;51.990;5.704;2023-05-10T05:47:16;16.6;70.6
80192;SHT31;69513;51.990;5.704;2023-05-10T05:49:46;16.5;70.8
80192;SHT31;69513;51.990;5.704;2023-05-10T05:52:15;16.5;70.8
80192;SHT31;69513;51.990;5.704;2023-05-10T05:54:47;16.4;71.0
80192;SHT31;69513;51.990;5.704;2023-05-10T05:57:16;16.4;71.5
80192;SHT31;69513;51.990;5.704;2023-05-10T05:59:48;16.3;71.5
80192;SHT31;69513;51.990;5.704;2023-05-10T06:02:17;16.3;72.3
80192;SHT31;69513;51.990;5.704;2023-05-10T06:04:47;16.2;72.7
80192;SHT31;69513;51.990;5.704;2023-05-10T06:07:17;16.2;72.3
80192;SHT31;69513;51.990;5.704;2023-05-10T06:09:48;16.2;72.8
80192;SHT31;69513;51.990;5.704;2023-05-10T06:12:17;16.2;73.1
80192;SHT31;69513;51.990;5.704;2023-05-10T06:14:48;16.1;73.3
80192;SHT31;69513;51.990;5.704;2023-05-10T06:17:17;16.1;72.6
80192;SHT31;69513;51.990;5.704;2023-05-10T06:19:49;16.1;73.2
80192;SHT31;69513;51.990;5.704;2023-05-10T06:22:18;16.1;73.4
80192;SHT31;69513;51.990;5.704;2023-05-10T06:24:50;16.0;73.9
80192;SHT31;69513;51.990;5.704;2023-05-10T06:27:19;16.0;74.2
80192;SHT31;69513;51.990;5.704;2023-05-10T06:29:49;16.0;74.4
80192;SHT31;69513;51.990;5.704;2023-05-10T06:32:19;16.0;74.6
80192;SHT31;69513;51.990;5.704;2023-05-10T06:34:48;16.0;73.8
80192;SHT31;69513;51.990;5.704;2023-05-10T06:37:20;16.0;74.6
80192;SHT31;69513;51.990;5.704;2023-05-10T06:39:49;16.0;74.8
80192;SHT31;69513;51.990;5.704;2023-05-10T06:42:19;16.0;74.0
80192;SHT31;69513;51.990;5.704;2023-05-10T06:44:48;16.0;74.4
80192;SHT31;69513;51.990;5.704;2023-05-10T06:47:18;16.0;74.2
80192;SHT31;69513;51.990;5.704;2023-05-10T06:49:49;16.0;74.4
80192;SHT31;69513;51.990;5.704;2023-05-10T06:52:19;16.0;74.8
80192;SHT31;69513;51.990;5.704;2023-05-10T06:54:48;15.9;74.8
80192;SHT31;69513;51.990;5.704;2023-05-10T06:57:18;15.9;75.1
80192;SHT31;69513;51.990;5.704;2023-05-10T06:59:48;15.9;75.0
80192;SHT31;69513;51.990;5.704;2023-05-10T07:02:19;15.9;74.6
80192;SHT31;69513;51.990;5.704;2023-05-10T07:04:49;15.9;75.2
80192;SHT31;69513;51.990;5.704;2023-05-10T07:07:22;15.9;75.0
80192;SHT31;69513;51.990;5.704;2023-05-10T07:09:51;15.9;74.9
80192;SHT31;69513;51.990;5.704;2023-05-10T07:12:21;15.9;75.4
80192;SHT31;69513;51.990;5.704;2023-05-10T07:14:50;15.9;75.5
80192;SHT31;69513;51.990;5.704;2023-05-10T07:17:20;15.9;75.0
80192;SHT31;69513;51.990;5.704;2023-05-10T07:19:49;15.9;75.6
80192;SHT31;69513;51.990;5.704;2023-05-10T07:22:20;15.9;75.6
80192;SHT31;69513;51.990;5.704;2023-05-10T07:24:49;15.8;74.9
80192;SHT31;69513;51.990;5.704;2023-05-10T07:27:19;15.8;75.0
80192;SHT31;69513;51.990;5.704;2023-05-10T07:29:49;15.8;75.7
80192;SHT31;69513;51.990;5.704;2023-05-10T07:32:19;15.8;75.2
80192;SHT31;69513;51.990;5.704;2023-05-10T07:34:49;15.8;75.6
80192;SHT31;69513;51.990;5.704;2023-05-10T07:37:19;15.8;75.6
80192;SHT31;69513;51.990;5.704;2023-05-10T07:39:48;15.8;75.5
80192;SHT31;69513;51.990;5.704;2023-05-10T07:42:19;15.9;75.2
80192;SHT31;69513;51.990;5.704;2023-05-10T07:44:50;15.9;74.6
80192;SHT31;69513;51.990;5.704;2023-05-10T07:47:22;15.9;75.0
80192;SHT31;69513;51.990;5.704;2023-05-10T07:49:55;15.8;75.8
80192;SHT31;69513;51.990;5.704;2023-05-10T07:52:25;15.8;75.7
80192;SHT31;69513;51.990;5.704;2023-05-10T07:54:55;15.9;76.2
80192;SHT31;69513;51.990;5.704;2023-05-10T07:57:25;15.9;75.9
80192;SHT31;69513;51.990;5.704;2023-05-10T07:59:55;15.9;74.9
80192;SHT31;69513;51.990;5.704;2023-05-10T08:02:24;15.9;75.4
80192;SHT31;69513;51.990;5.704;2023-05-10T08:04:54;15.9;75.4
80192;SHT31;69513;51.990;5.704;2023-05-10T08:07:24;16.0;75.7
80192;SHT31;69513;51.990;5.704;2023-05-10T08:09:54;16.0;75.4
80192;SHT31;69513;51.990;5.704;2023-05-10T08:12:24;16.0;73.9
80192;SHT31;69513;51.990;5.704;2023-05-10T08:14:54;16.0;75.0
80192;SHT31;69513;51.990;5.704;2023-05-10T08:17:24;16.0;73.4
80192;SHT31;69513;51.990;5.704;2023-05-10T08:19:54;16.0;73.4
80192;SHT31;69513;51.990;5.704;2023-05-10T08:22:24;16.0;74.1
80192;SHT31;69513;51.990;5.704;2023-05-10T08:24:55;16.1;73.1
80192;SHT31;69513;51.990;5.704;2023-05-10T08:27:24;16.1;72.1
80192;SHT31;69513;51.990;5.704;2023-05-10T08:29:54;16.0;72.9
80192;SHT31;69513;51.990;5.704;2023-05-10T08:32:23;16.0;72.4
80192;SHT31;69513;51.990;5.704;2023-05-10T08:34:53;16.0;73.7
80192;SHT31;69513;51.990;5.704;2023-05-10T08:37:25;16.0;72.7
80192;SHT31;69513;51.990;5.704;2023-05-10T08:39:54;16.0;70.9
80192;SHT31;69513;51.990;5.704;2023-05-10T08:42:26;16.0;70.7
80192;SHT31;69513;51.990;5.704;2023-05-10T08:44:59;15.9;70.6
80192;SHT31;69513;51.990;5.704;2023-05-10T08:47:31;15.9;73.3
80192;SHT31;69513;51.990;5.704;2023-05-10T08:50:03;15.9;72.7
80192;SHT31;69513;51.990;5.704;2023-05-10T08:52:40;15.9;72.5
80192;SHT31;69513;51.990;5.704;2023-05-10T08:55:12;16.0;71.5
80192;SHT31;69513;51.990;5.704;2023-05-10T08:57:43;16.0;72.4
80192;SHT31;69513;51.990;5.704;2023-05-10T09:00:17;16.0;73.6
80192;SHT31;69513;51.990;5.704;2023-05-10T09:02:48;16.1;73.1
80192;SHT31;69513;51.990;5.704;2023-05-10T09:05:19;16.2;71.6
80192;SHT31;69513;51.990;5.704;2023-05-10T09:07:50;16.2;71.5
80192;SHT31;69513;51.990;5.704;2023-05-10T09:10:22;16.2;71.7
80192;SHT31;69513;51.990;5.704;2023-05-10T09:12:56;16.3;69.8
80192;SHT31;69513;51.990;5.704;2023-05-10T09:15:27;16.3;72.4
80192;SHT31;69513;51.990;5.704;2023-05-10T09:17:58;16.4;72.0
80192;SHT31;69513;51.990;5.704;2023-05-10T09:20:30;16.4;69.8
80192;SHT31;69513;51.990;5.704;2023-05-10T09:23:00;16.4;71.9
80192;SHT31;69513;51.990;5.704;2023-05-10T09:25:30;16.5;69.1
80192;SHT31;69513;51.990;5.704;2023-05-10T09:28:01;16.5;69.8
80192;SHT31;69513;51.990;5.704;2023-05-10T09:30:31;16.5;70.1
80192;SHT31;69513;51.990;5.704;2023-05-10T09:33:02;16.6;68.7
80192;SHT31;69513;51.990;5.704;2023-05-10T09:35:34;16.6;71.0
80192;SHT31;69513;51.990;5.704;2023-05-10T09:38:05;16.6;71.1
80192;SHT31;69513;51.990;5.704;2023-05-10T09:40:35;16.6;69.6
80192;SHT31;69513;51.990;5.704;2023-05-10T09:43:07;16.6;71.4
80192;SHT31;69513;51.990;5.704;2023-05-10T09:45:41;16.7;69.0
80192;SHT31;69513;51.990;5.704;2023-05-10T09:48:10;16.7;70.3
80192;SHT31;69513;51.990;5.704;2023-05-10T09:50:41;16.7;70.0
80192;SHT31;69513;51.990;5.704;2023-05-10T09:53:14;16.7;67.8
80192;SHT31;69513;51.990;5.704;2023-05-10T09:55:47;16.7;70.0
80192;SHT31;69513;51.990;5.704;2023-05-10T09:58:20;16.8;69.7
80192;SHT31;69513;51.990;5.704;2023-05-10T10:00:51;16.8;70.4
80192;SHT31;69513;51.990;5.704;2023-05-10T10:03:23;16.8;72.1
80192;SHT31;69513;51.990;5.704;2023-05-10T10:05:54;16.9;70.4
80192;SHT31;69513;51.990;5.704;2023-05-10T10:08:25;16.9;68.2
80192;SHT31;69513;51.990;5.704;2023-05-10T10:10:55;16.9;69.2
80192;SHT31;69513;51.990;5.704;2023-05-10T10:13:27;17.0;66.7
80192;SHT31;69513;51.990;5.704;2023-05-10T10:15:56;17.0;68.0
80192;SHT31;69513;51.990;5.704;2023-05-10T10:18:30;17.0;69.8
80192;SHT31;69513;51.990;5.704;2023-05-10T10:21:00;17.0;67.6
80192;SHT31;69513;51.990;5.704;2023-05-10T10:23:33;17.0;67.1
80192;SHT31;69513;51.990;5.704;2023-05-10T10:26:05;17.0;67.4
80192;SHT31;69513;51.990;5.704;2023-05-10T10:28:45;17.1;67.5
80192;SHT31;69513;51.990;5.704;2023-05-10T10:31:30;17.1;66.9
80192;SHT31;69513;51.990;5.704;2023-05-10T10:34:06;17.1;66.3
80192;SHT31;69513;51.990;5.704;2023-05-10T10:36:44;17.1;66.9
80192;SHT31;69513;51.990;5.704;2023-05-10T10:39:14;17.1;68.3
80192;SHT31;69513;51.990;5.704;2023-05-10T10:41:52;17.2;68.9
80192;SHT31;69513;51.990;5.704;2023-05-10T10:44:39;17.2;66.4
80192;SHT31;69513;51.990;5.704;2023-05-10T10:47:24;17.2;66.2
80192;SHT31;69513;51.990;5.704;2023-05-10T10:50:08;17.2;68.3
80192;SHT31;69513;51.990;5.704;2023-05-10T10:52:43;17.2;68.5
80192;SHT31;69513;51.990;5.704;2023-05-10T10:55:14;17.3;68.9
80192;SHT31;69513;51.990;5.704;2023-05-10T10:57:49;17.3;66.8
80192;SHT31;69513;51.990;5.704;2023-05-10T11:00:28;17.3;64.7
80192;SHT31;69513;51.990;5.704;2023-05-10T11:03:03;17.3;66.3
80192;SHT31;69513;51.990;5.704;2023-05-10T11:05:41;17.3;65.8
80192;SHT31;69513;51.990;5.704;2023-05-10T11:08:20;17.3;63.9
80192;SHT31;69513;51.990;5.704;2023-05-10T11:11:07;17.3;67.7
80192;SHT31;69513;51.990;5.704;2023-05-10T11:13:43;17.3;65.1
80192;SHT31;69513;51.990;5.704;2023-05-10T11:16:18;17.3;67.2
80192;SHT31;69513;51.990;5.704;2023-05-10T11:18:59;17.3;66.3
80192;SHT31;69513;51.990;5.704;2023-05-10T11:21:33;17.4;64.3
80192;SHT31;69513;51.990;5.704;2023-05-10T11:24:15;17.4;65.0
80192;SHT31;69513;51.990;5.704;2023-05-10T11:26:52;17.4;68.1
80192;SHT31;69513;51.990;5.704;2023-05-10T11:29:24;17.4;67.0
80192;SHT31;69513;51.990;5.704;2023-05-10T11:31:59;17.5;65.6
80192;SHT31;69513;51.990;5.704;2023-05-10T11:34:31;17.5;66.2
80192;SHT31;69513;51.990;5.704;2023-05-10T11:37:04;17.5;64.4
80192;SHT31;69513;51.990;5.704;2023-05-10T11:39:34;17.6;64.9
80192;SHT31;69513;51.990;5.704;2023-05-10T11:42:05;17.6;63.4
80192;SHT31;69513;51.990;5.704;2023-05-10T11:44:37;17.6;65.7
80192;SHT31;69513;51.990;5.704;2023-05-10T11:47:12;17.6;65.5
80192;SHT31;69513;51.990;5.704;2023-05-10T11:49:44;17.6;64.5
80192;SHT31;69513;51.990;5.704;2023-05-10T11:52:15;17.7;64.5
80192;SHT31;69513;51.990;5.704;2023-05-10T11:54:51;17.7;65.8
80192;SHT31;69513;51.990;5.704;2023-05-10T11:57:28;17.7;67.1
80192;SHT31;69513;51.990;5.704;2023-05-10T12:00:00;17.8;64.6
80192;SHT31;69513;51.990;5.704;2023-05-10T12:02:31;17.8;65.1
80192;SHT31;69513;51.990;5.704;2023-05-10T12:05:04;17.8;65.8
80192;SHT31;69513;51.990;5.704;2023-05-10T12:07:34;17.9;64.3
80192;SHT31;69513;51.990;5.704;2023-05-10T12:10:08;17.9;65.1
80192;SHT31;69513;51.990;5.704;2023-05-10T12:12:44;18.0;62.1
80192;SHT31;69513;51.990;5.704;2023-05-10T12:15:21;18.0;64.0
80192;SHT31;69513;51.990;5.704;2023-05-10T12:17:51;18.1;61.4
80192;SHT31;69513;51.990;5.704;2023-05-10T12:20:24;18.1;61.6
80192;SHT31;69513;51.990;5.704;2023-05-10T12:22:56;18.1;62.8
80192;SHT31;69513;51.990;5.704;2023-05-10T12:25:34;18.2;65.4
80192;SHT31;69513;51.990;5.704;2023-05-10T12:28:07;18.2;64.6
80192;SHT31;69513;51.990;5.704;2023-05-10T12:30:39;18.2;64.4
80192;SHT31;69513;51.990;5.704;2023-05-10T12:33:11;18.3;63.3
80192;SHT31;69513;51.990;5.704;2023-05-10T12:35:49;18.4;64.2
80192;SHT31;69513;51.990;5.704;2023-05-10T12:38:34;18.5;62.6
80192;SHT31;69513;51.990;5.704;2023-05-10T12:41:07;18.5;64.4
80192;SHT31;69513;51.990;5.704;2023-05-10T12:43:39;18.6;62.3
80192;SHT31;69513;51.990;5.704;2023-05-10T12:46:12;18.7;62.9
80192;SHT31;69513;51.990;5.704;2023-05-10T12:48:44;18.7;63.9
80192;SHT31;69513;51.990;5.704;2023-05-10T12:51:17;18.8;63.4
80192;SHT31;69513;51.990;5.704;2023-05-10T12:53:49;18.9;62.1
80192;SHT31;69513;51.990;5.704;2023-05-10T12:56:20;18.9;60.1
80192;SHT31;69513;51.990;5.704;2023-05-10T12:58:49;19.0;59.2
80192;SHT31;69513;51.990;5.704;2023-05-10T13:01:19;19.0;59.0
80192;SHT31;69513;51.990;5.704;2023-05-10T13:03:49;19.0;61.3
80192;SHT31;69513;51.990;5.704;2023-05-10T13:06:21;19.0;61.4
80192;SHT31;69513;51.990;5.704;2023-05-10T13:08:50;19.1;62.5
80192;SHT31;69513;51.990;5.704;2023-05-10T13:11:21;19.1;61.7
80192;SHT31;69513;51.990;5.704;2023-05-10T13:13:51;19.1;61.3
80192;SHT31;69513;51.990;5.704;2023-05-10T13:16:21;19.1;62.0
80192;SHT31;69513;51.990;5.704;2023-05-10T13:18:50;19.1;60.9
80192;SHT31;69513;51.990;5.704;2023-05-10T13:21:20;19.0;61.8
80192;SHT31;69513;51.990;5.704;2023-05-10T13:23:53;19.0;61.6
80192;SHT31;69513;51.990;5.704;2023-05-10T13:26:23;18.9;60.2
80192;SHT31;69513;51.990;5.704;2023-05-10T13:28:54;18.8;62.1
80192;SHT31;69513;51.990;5.704;2023-05-10T13:31:23;18.8;61.4
80192;SHT31;69513;51.990;5.704;2023-05-10T13:33:53;18.7;62.1
80192;SHT31;69513;51.990;5.704;2023-05-10T13:36:22;18.6;63.9
80192;SHT31;69513;51.990;5.704;2023-05-10T13:38:52;18.5;65.3
80192;SHT31;69513;51.990;5.704;2023-05-10T13:41:22;18.5;65.8
80192;SHT31;69513;51.990;5.704;2023-05-10T13:43:53;18.4;66.1
80192;SHT31;69513;51.990;5.704;2023-05-10T13:46:25;18.4;65.9
80192;SHT31;69513;51.990;5.704;2023-05-10T13:48:55;18.3;66.1
80192;SHT31;69513;51.990;5.704;2023-05-10T13:51:24;18.2;67.1
80192;SHT31;69513;51.990;5.704;2023-05-10T13:53:55;18.1;67.8
80192;SHT31;69513;51.990;5.704;2023-05-10T13:56:25;18.1;68.0
80192;SHT31;69513;51.990;5.704;2023-05-10T13:58:57;18.0;68.4
80192;SHT31;69513;51.990;5.704;2023-05-10T14:01:27;18.0;68.4
80192;SHT31;69513;51.990;5.704;2023-05-10T14:03:57;17.9;67.2
80192;SHT31;69513;51.990;5.704;2023-05-10T14:06:27;17.8;68.7
80192;SHT31;69513;51.990;5.704;2023-05-10T14:08:58;17.7;68.3
80192;SHT31;69513;51.990;5.704;2023-05-10T14:11:27;17.7;67.9
80192;SHT31;69513;51.990;5.704;2023-05-10T14:13:59;17.6;68.5
80192;SHT31;69513;51.990;5.704;2023-05-10T14:16:29;17.5;67.7
80192;SHT31;69513;51.990;5.704;2023-05-10T14:18:58;17.5;68.8
80192;SHT31;69513;51.990;5.704;2023-05-10T14:21:29;17.4;68.7
80192;SHT31;69513;51.990;5.704;2023-05-10T14:23:59;17.4;69.2
80192;SHT31;69513;51.990;5.704;2023-05-10T14:26:31;17.3;70.2
80192;SHT31;69513;51.990;5.704;2023-05-10T14:29:01;17.3;70.7
80192;SHT31;69513;51.990;5.704;2023-05-10T14:31:31;17.3;71.6
80192;SHT31;69513;51.990;5.704;2023-05-10T14:34:01;17.2;71.7
80192;SHT31;69513;51.990;5.704;2023-05-10T14:36:31;17.2;72.1
80192;SHT31;69513;51.990;5.704;2023-05-10T14:39:01;17.2;71.3
80192;SHT31;69513;51.990;5.704;2023-05-10T14:41:32;17.2;70.9
80192;SHT31;69513;51.990;5.704;2023-05-10T14:44:01;17.2;70.8
80192;SHT31;69513;51.990;5.704;2023-05-10T14:46:32;17.2;70.4
80192;SHT31;69513;51.990;5.704;2023-05-10T14:49:02;17.2;70.3
80192;SHT31;69513;51.990;5.704;2023-05-10T14:51:32;17.2;70.1
80192;SHT31;69513;51.990;5.704;2023-05-10T14:54:06;17.2;71.3
80192;SHT31;69513;51.990;5.704;2023-05-10T14:56:35;17.2;70.6
80192;SHT31;69513;51.990;5.704;2023-05-10T14:59:09;17.2;70.8
80192;SHT31;69513;51.990;5.704;2023-05-10T15:01:39;17.2;71.9
80192;SHT31;69513;51.990;5.704;2023-05-10T15:04:10;17.2;71.3
80192;SHT31;69513;51.990;5.704;2023-05-10T15:06:41;17.2;72.3
80192;SHT31;69513;51.990;5.704;2023-05-10T15:09:12;17.3;72.0
80192;SHT31;69513;51.990;5.704;2023-05-10T15:11:43;17.3;72.0
80192;SHT31;69513;51.990;5.704;2023-05-10T15:14:13;17.4;71.0
80192;SHT31;69513;51.990;5.704;2023-05-10T15:16:42;17.4;72.2
80192;SHT31;69513;51.990;5.704;2023-05-10T15:19:12;17.4;71.3
80192;SHT31;69513;51.990;5.704;2023-05-10T15:21:42;17.5;72.0
80192;SHT31;69513;51.990;5.704;2023-05-10T15:24:15;17.5;72.4
80192;SHT31;69513;51.990;5.704;2023-05-10T15:26:44;17.5;71.4
80192;SHT31;69513;51.990;5.704;2023-05-10T15:29:14;17.6;72.4
80192;SHT31;69513;51.990;5.704;2023-05-10T15:31:50;17.6;72.8
80192;SHT31;69513;51.990;5.704;2023-05-10T15:34:20;17.7;72.1
80192;SHT31;69513;51.990;5.704;2023-05-10T15:36:50;17.7;70.4
80192;SHT31;69513;51.990;5.704;2023-05-10T15:39:20;17.8;71.7
80192;SHT31;69513;51.990;5.704;2023-05-10T15:41:53;17.8;72.3
80192;SHT31;69513;51.990;5.704;2023-05-10T15:44:22;17.9;70.1
80192;SHT31;69513;51.990;5.704;2023-05-10T15:46:52;18.0;71.8
80192;SHT31;69513;51.990;5.704;2023-05-10T15:49:21;18.1;70.9
80192;SHT31;69513;51.990;5.704;2023-05-10T15:51:52;18.1;69.0
80192;SHT31;69513;51.990;5.704;2023-05-10T15:54:21;18.2;69.1
80192;SHT31;69513;51.990;5.704;2023-05-10T15:56:51;18.3;68.6
80192;SHT31;69513;51.990;5.704;2023-05-10T15:59:22;18.5;67.1
80192;SHT31;69513;51.990;5.704;2023-05-10T16:01:52;18.6;69.5
80192;SHT31;69513;51.990;5.704;2023-05-10T16:04:23;18.8;68.4
80192;SHT31;69513;51.990;5.704;2023-05-10T16:06:53;19.0;68.2
80192;SHT31;69513;51.990;5.704;2023-05-10T16:09:23;19.1;67.3
80192;SHT31;69513;51.990;5.704;2023-05-10T16:11:53;19.2;66.5
80192;SHT31;69513;51.990;5.704;2023-05-10T16:14:23;19.3;63.7
80192;SHT31;69513;51.990;5.704;2023-05-10T16:16:53;19.3;63.0
80192;SHT31;69513;51.990;5.704;2023-05-10T16:19:24;19.3;64.3
80192;SHT31;69513;51.990;5.704;2023-05-10T16:21:54;19.2;62.5
80192;SHT31;69513;51.990;5.704;2023-05-10T16:24:26;19.1;62.6
80192;SHT31;69513;51.990;5.704;2023-05-10T16:26:55;19.0;62.8
80192;SHT31;69513;51.990;5.704;2023-05-10T16:29:25;18.9;64.4
80192;SHT31;69513;51.990;5.704;2023-05-10T16:31:54;18.9;65.6
80192;SHT31;69513;51.990;5.704;2023-05-10T16:34:24;18.8;66.4
80192;SHT31;69513;51.990;5.704;2023-05-10T16:36:54;18.8;63.9
80192;SHT31;69513;51.990;5.704;2023-05-10T16:39:24;18.8;66.1
80192;SHT31;69513;51.990;5.704;2023-05-10T16:41:53;18.9;66.7
80192;SHT31;69513;51.990;5.704;2023-05-10T16:44:23;18.9;64.5
80192;SHT31;69513;51.990;5.704;2023-05-10T16:46:53;19.0;65.0
80192;SHT31;69513;51.990;5.704;2023-05-10T16:49:24;19.1;64.4
80192;SHT31;69513;51.990;5.704;2023-05-10T16:51:54;19.2;65.0
80192;SHT31;69513;51.990;5.704;2023-05-10T16:54:25;19.2;65.5
80192;SHT31;69513;51.990;5.704;2023-05-10T16:56:54;19.2;65.1
80192;SHT31;69513;51.990;5.704;2023-05-10T16:59:24;19.2;65.9
80192;SHT31;69513;51.990;5.704;2023-05-10T17:01:55;19.2;65.7
80192;SHT31;69513;51.990;5.704;2023-05-10T17:04:25;19.3;65.2
80192;SHT31;69513;51.990;5.704;2023-05-10T17:06:55;19.3;65.6
80192;SHT31;69513;51.990;5.704;2023-05-10T17:09:25;19.3;65.5
80192;SHT31;69513;51.990;5.704;2023-05-10T17:11:56;19.5;65.3
80192;SHT31;69513;51.990;5.704;2023-05-10T17:14:26;19.7;63.0
80192;SHT31;69513;51.990;5.704;2023-05-10T17:16:56;19.8;63.7
80192;SHT31;69513;51.990;5.704;2023-05-10T17:19:27;19.8;61.2
80192;SHT31;69513;51.990;5.704;2023-05-10T17:21:57;19.9;63.1
80192;SHT31;69513;51.990;5.704;2023-05-10T17:24:27;19.9;61.5
80192;SHT31;69513;51.990;5.704;2023-05-10T17:26:58;19.9;62.1
80192;SHT31;69513;51.990;5.704;2023-05-10T17:29:30;19.8;61.5
80192;SHT31;69513;51.990;5.704;2023-05-10T17:32:01;19.8;63.0
80192;SHT31;69513;51.990;5.704;2023-05-10T17:34:31;19.7;62.5
80192;SHT31;69513;51.990;5.704;2023-05-10T17:37:01;19.7;63.2
80192;SHT31;69513;51.990;5.704;2023-05-10T17:39:34;19.6;64.2
80192;SHT31;69513;51.990;5.704;2023-05-10T17:42:05;19.5;64.0
80192;SHT31;69513;51.990;5.704;2023-05-10T17:44:35;19.5;64.2
80192;SHT31;69513;51.990;5.704;2023-05-10T17:47:05;19.4;65.1
80192;SHT31;69513;51.990;5.704;2023-05-10T17:49:34;19.3;65.6
80192;SHT31;69513;51.990;5.704;2023-05-10T17:52:06;19.3;65.5
80192;SHT31;69513;51.990;5.704;2023-05-10T17:54:38;19.2;65.6
80192;SHT31;69513;51.990;5.704;2023-05-10T17:57:08;19.2;64.5
80192;SHT31;69513;51.990;5.704;2023-05-10T17:59:37;19.1;64.4
80192;SHT31;69513;51.990;5.704;2023-05-10T18:02:07;19.1;64.3
80192;SHT31;69513;51.990;5.704;2023-05-10T18:04:38;19.0;65.4
80192;SHT31;69513;51.990;5.704;2023-05-10T18:07:08;19.0;65.6
80192;SHT31;69513;51.990;5.704;2023-05-10T18:09:38;18.9;66.1
80192;SHT31;69513;51.990;5.704;2023-05-10T18:12:09;18.9;65.2
80192;SHT31;69513;51.990;5.704;2023-05-10T18:14:40;18.8;65.0
80192;SHT31;69513;51.990;5.704;2023-05-10T18:17:10;18.8;66.4
80192;SHT31;69513;51.990;5.704;2023-05-10T18:19:41;18.8;65.7
80192;SHT31;69513;51.990;5.704;2023-05-10T18:22:11;18.7;66.0
80192;SHT31;69513;51.990;5.704;2023-05-10T18:24:42;18.7;66.9
80192;SHT31;69513;51.990;5.704;2023-05-10T18:27:14;18.6;67.3
80192;SHT31;69513;51.990;5.704;2023-05-10T18:29:44;18.6;67.5
80192;SHT31;69513;51.990;5.704;2023-05-10T18:32:14;18.5;67.3
80192;SHT31;69513;51.990;5.704;2023-05-10T18:34:44;18.5;67.3
80192;SHT31;69513;51.990;5.704;2023-05-10T18:37:16;18.5;66.6
80192;SHT31;69513;51.990;5.704;2023-05-10T18:39:47;18.4;66.8
80192;SHT31;69513;51.990;5.704;2023-05-10T18:42:19;18.4;67.0
80192;SHT31;69513;51.990;5.704;2023-05-10T18:44:49;18.3;67.8
80192;SHT31;69513;51.990;5.704;2023-05-10T18:47:20;18.3;67.8
80192;SHT31;69513;51.990;5.704;2023-05-10T18:49:53;18.3;67.9
80192;SHT31;69513;51.990;5.704;2023-05-10T18:52:24;18.2;67.8
80192;SHT31;69513;51.990;5.704;2023-05-10T18:54:55;18.2;68.0
80192;SHT31;69513;51.990;5.704;2023-05-10T18:57:26;18.2;68.3
80192;SHT31;69513;51.990;5.704;2023-05-10T18:59:55;18.1;68.3
80192;SHT31;69513;51.990;5.704;2023-05-10T19:02:27;18.1;68.6
80192;SHT31;69513;51.990;5.704;2023-05-10T19:04:59;18.0;68.8
80192;SHT31;69513;51.990;5.704;2023-05-10T19:07:30;18.0;68.9
80192;SHT31;69513;51.990;5.704;2023-05-10T19:10:03;18.0;69.0
80192;SHT31;69513;51.990;5.704;2023-05-10T19:12:34;17.9;69.1
80192;SHT31;69513;51.990;5.704;2023-05-10T19:15:07;17.9;68.9
80192;SHT31;69513;51.990;5.704;2023-05-10T19:17:39;17.9;68.6
80192;SHT31;69513;51.990;5.704;2023-05-10T19:20:12;17.8;68.5
80192;SHT31;69513;51.990;5.704;2023-05-10T19:22:42;17.8;68.3
80192;SHT31;69513;51.990;5.704;2023-05-10T19:25:13;17.7;68.4
80192;SHT31;69513;51.990;5.704;2023-05-10T19:27:46;17.7;68.6
80192;SHT31;69513;51.990;5.704;2023-05-10T19:30:15;17.7;68.8
80192;SHT31;69513;51.990;5.704;2023-05-10T19:32:45;17.6;68.6
80192;SHT31;69513;51.990;5.704;2023-05-10T19:35:14;17.6;68.6
80192;SHT31;69513;51.990;5.704;2023-05-10T19:37:45;17.5;68.7
80192;SHT31;69513;51.990;5.704;2023-05-10T19:40:19;17.5;68.7
80192;SHT31;69513;51.990;5.704;2023-05-10T19:42:49;17.5;68.8
80192;SHT31;69513;51.990;5.704;2023-05-10T19:45:18;17.4;68.9
80192;SHT31;69513;51.990;5.704;2023-05-10T19:47:49;17.4;68.8
80192;SHT31;69513;51.990;5.704;2023-05-10T19:50:19;17.4;68.9
80192;SHT31;69513;51.990;5.704;2023-05-10T19:52:50;17.4;69.4
80192;SHT31;69513;51.990;5.704;2023-05-10T19:55:28;17.3;69.5
80192;SHT31;69513;51.990;5.704;2023-05-10T19:57:58;17.3;69.5
80192;SHT31;69513;51.990;5.704;2023-05-10T20:00:28;17.3;69.4
80192;SHT31;69513;51.990;5.704;2023-05-10T20:02:58;17.3;69.5
80192;SHT31;69513;51.990;5.704;2023-05-10T20:05:28;17.3;69.5
80192;SHT31;69513;51.990;5.704;2023-05-10T20:07:57;17.2;69.5
80192;SHT31;69513;51.990;5.704;2023-05-10T20:10:29;17.2;69.7
80192;SHT31;69513;51.990;5.704;2023-05-10T20:12:58;17.2;69.8
80192;SHT31;69513;51.990;5.704;2023-05-10T20:15:29;17.2;70.1
80192;SHT31;69513;51.990;5.704;2023-05-10T20:17:59;17.2;70.1
80192;SHT31;69513;51.990;5.704;2023-05-10T20:20:30;17.2;70.4
80192;SHT31;69513;51.990;5.704;2023-05-10T20:23:00;17.2;70.4
80192;SHT31;69513;51.990;5.704;2023-05-10T20:25:31;17.2;70.6
80192;SHT31;69513;51.990;5.704;2023-05-10T20:28:00;17.1;70.7
80192;SHT31;69513;51.990;5.704;2023-05-10T20:30:30;17.1;70.6
80192;SHT31;69513;51.990;5.704;2023-05-10T20:32:59;17.1;70.6
80192;SHT31;69513;51.990;5.704;2023-05-10T20:35:31;17.1;70.7
80192;SHT31;69513;51.990;5.704;2023-05-10T20:38:01;17.1;70.7
80192;SHT31;69513;51.990;5.704;2023-05-10T20:40:31;17.1;70.6
80192;SHT31;69513;51.990;5.704;2023-05-10T21:33:53;18.9;63.4
80192;SHT31;69513;51.990;5.704;2023-05-10T21:36:23;18.9;63.0
80192;SHT31;69513;51.990;5.704;2023-05-10T21:38:55;18.8;63.4
80192;SHT31;69513;51.990;5.704;2023-05-10T21:41:25;18.6;63.5
80192;SHT31;69513;51.990;5.704;2023-05-10T21:43:58;18.5;64.0
80192;SHT31;69513;51.990;5.704;2023-05-10T21:46:27;18.3;64.5
80192;SHT31;69513;51.990;5.704;2023-05-10T21:48:58;18.2;64.9
80192;SHT31;69513;51.990;5.704;2023-05-10T21:51:27;18.0;65.2
80192;SHT31;69513;51.990;5.704;2023-05-10T21:54:00;17.9;65.5
80192;SHT31;69513;51.990;5.704;2023-05-10T21:56:29;17.8;66.0
80192;SHT31;69513;51.990;5.704;2023-05-10T21:58:59;17.7;66.4
80192;SHT31;69513;51.990;5.704;2023-05-10T22:01:30;17.6;66.8
80192;SHT31;69513;51.990;5.704;2023-05-10T22:04:00;17.5;67.1
80192;SHT31;69513;51.990;5.704;2023-05-10T22:06:30;17.4;67.5
80192;SHT31;69513;51.990;5.704;2023-05-10T22:09:00;17.3;68.0
80192;SHT31;69513;51.990;5.704;2023-05-10T22:11:31;17.2;68.4
80192;SHT31;69513;51.990;5.704;2023-05-10T22:14:00;17.2;68.8
80192;SHT31;69513;51.990;5.704;2023-05-10T22:16:30;17.1;69.0
80192;SHT31;69513;51.990;5.704;2023-05-10T22:18:59;17.0;69.2
80192;SHT31;69513;51.990;5.704;2023-05-10T22:21:29;17.0;69.4
80192;SHT31;69513;51.990;5.704;2023-05-10T22:23:58;16.9;69.6
80192;SHT31;69513;51.990;5.704;2023-05-10T22:26:27;16.9;69.6